createdAt,value
2023-11-16T00:00:20.269Z,7.60
2023-11-16T00:02:50.702Z,7.50
2023-11-16T00:05:18.890Z,7.50
2023-11-16T00:07:47.219Z,7.40
2023-11-16T00:10:16.716Z,7.60
2023-11-16T00:12:45.131Z,7.50
2023-11-16T00:15:14.181Z,7.60
2023-11-16T00:17:43.451Z,7.60
2023-11-16T00:20:13.428Z,7.70
2023-11-16T00:22:41.940Z,7.60
2023-11-16T00:25:10.858Z,7.50
2023-11-16T00:27:39.717Z,7.30
2023-11-16T00:30:09.608Z,7.30
2023-11-16T00:32:37.815Z,7.20
2023-11-16T00:35:07.556Z,7.00
2023-11-16T00:37:37.658Z,6.90
2023-11-16T00:40:06.395Z,6.90
2023-11-16T00:42:36.455Z,6.90
2023-11-16T00:45:04.696Z,6.90
2023-11-16T00:47:32.805Z,7.00
2023-11-16T00:50:01.121Z,6.90
2023-11-16T00:52:29.204Z,6.90
2023-11-16T00:54:58.654Z,7.00
2023-11-16T00:57:26.705Z,7.00
2023-11-16T00:59:54.783Z,7.10
2023-11-16T01:02:22.823Z,7.10
2023-11-16T01:04:50.868Z,7.10
2023-11-16T01:07:18.832Z,7.10
2023-11-16T01:09:46.925Z,7.20
2023-11-16T01:12:17.662Z,7.20
2023-11-16T01:14:46.696Z,7.20
2023-11-16T01:17:20.687Z,7.20
2023-11-16T01:19:53.186Z,7.10
2023-11-16T01:22:23.608Z,7.20
2023-11-16T01:24:53.150Z,7.30
2023-11-16T01:27:28.037Z,7.40
2023-11-16T01:29:56.353Z,7.50
2023-11-16T01:32:24.408Z,7.40
2023-11-16T01:34:54.149Z,7.20
2023-11-16T01:37:22.732Z,7.20
2023-11-16T01:39:50.733Z,7.20
2023-11-16T01:42:18.938Z,7.20
2023-11-16T01:44:48.403Z,7.20
2023-11-16T01:47:16.805Z,7.30
2023-11-16T01:49:45.676Z,7.10
2023-11-16T01:52:16.010Z,7.00
2023-11-16T01:54:44.524Z,6.90
2023-11-16T01:57:13.720Z,6.90
2023-11-16T01:59:43.131Z,6.90
2023-11-16T02:02:13.202Z,7.00
2023-11-16T02:04:41.321Z,7.10
2023-11-16T02:07:09.359Z,7.10
2023-11-16T02:09:37.415Z,7.10
2023-11-16T02:12:06.402Z,7.10
2023-11-16T02:14:34.453Z,7.10
2023-11-16T02:17:02.575Z,7.20
2023-11-16T02:19:33.148Z,7.20
2023-11-16T02:22:02.239Z,7.10
2023-11-16T02:24:32.361Z,7.30
2023-11-16T02:26:59.517Z,7.40
2023-11-16T02:29:28.064Z,7.50
2023-11-16T02:31:56.759Z,7.60
2023-11-16T02:34:24.890Z,7.70
2023-11-16T02:36:54.715Z,7.50
2023-11-16T02:39:22.773Z,7.50
2023-11-16T02:41:52.316Z,7.60
2023-11-16T02:44:20.699Z,7.50
2023-11-16T02:46:49.027Z,7.50
2023-11-16T02:49:17.123Z,7.50
2023-11-16T02:51:45.946Z,7.40
2023-11-16T02:54:14.030Z,7.40
2023-11-16T02:56:42.077Z,7.50
2023-11-16T02:59:14.681Z,7.40
2023-11-16T03:01:42.744Z,7.30
2023-11-16T03:04:11.057Z,7.30
2023-11-16T03:06:40.306Z,7.30
2023-11-16T03:09:11.074Z,7.30
2023-11-16T03:11:39.142Z,7.40
2023-11-16T03:14:07.147Z,7.40
2023-11-16T03:16:40.841Z,7.50
2023-11-16T03:19:10.313Z,7.50
2023-11-16T03:21:38.425Z,7.50
2023-11-16T03:24:07.434Z,7.40
2023-11-16T03:26:35.493Z,7.40
2023-11-16T03:29:03.943Z,7.50
2023-11-16T03:31:34.089Z,7.50
2023-11-16T03:34:04.046Z,7.30
2023-11-16T03:36:32.215Z,7.30
2023-11-16T03:39:00.506Z,7.20
2023-11-16T03:41:30.482Z,7.40
2023-11-16T03:43:58.621Z,7.40
2023-11-16T03:46:26.723Z,7.40
2023-11-16T03:48:54.873Z,7.50
2023-11-16T03:51:24.341Z,7.60
2023-11-16T03:53:52.380Z,7.60
2023-11-16T03:56:20.423Z,7.60
2023-11-16T03:58:48.426Z,7.50
2023-11-16T04:01:16.463Z,7.30
2023-11-16T04:03:45.256Z,7.30
2023-11-16T04:06:19.956Z,7.40
2023-11-16T04:08:49.622Z,7.30
2023-11-16T04:11:19.011Z,7.20
2023-11-16T04:13:47.878Z,7.30
2023-11-16T04:16:23.176Z,7.30
2023-11-16T04:18:51.517Z,7.30
2023-11-16T04:21:20.429Z,7.30
2023-11-16T04:23:53.555Z,7.60
2023-11-16T04:26:22.451Z,7.50
2023-11-16T04:28:50.974Z,7.40
2023-11-16T04:31:19.694Z,7.50
2023-11-16T04:33:48.491Z,7.50
2023-11-16T04:36:29.683Z,7.60
2023-11-16T04:39:01.340Z,7.60
2023-11-16T04:41:32.075Z,7.40
2023-11-16T04:44:02.594Z,7.30
2023-11-16T04:46:30.824Z,7.40
2023-11-16T04:48:59.024Z,7.40
2023-11-16T04:51:27.099Z,7.40
2023-11-16T04:53:55.253Z,7.30
2023-11-16T04:56:24.599Z,7.20
2023-11-16T04:58:52.838Z,7.30
2023-11-16T05:01:20.967Z,7.30
2023-11-16T05:03:49.122Z,7.40
2023-11-16T05:06:17.244Z,7.30
2023-11-16T05:08:45.282Z,7.20
2023-11-16T05:11:21.985Z,7.20
2023-11-16T05:13:51.766Z,7.20
2023-11-16T05:16:20.218Z,7.20
2023-11-16T05:18:48.499Z,7.30
2023-11-16T05:21:18.057Z,7.40
2023-11-16T05:23:46.821Z,7.40
2023-11-16T05:26:14.996Z,7.20
2023-11-16T05:28:44.007Z,7.10
2023-11-16T05:31:13.411Z,7.00
2023-11-16T05:33:41.410Z,7.20
2023-11-16T05:36:12.219Z,7.30
2023-11-16T05:38:40.241Z,7.30
2023-11-16T05:41:08.998Z,7.30
2023-11-16T05:43:38.741Z,7.30
2023-11-16T05:46:07.097Z,7.40
2023-11-16T05:48:36.552Z,7.50
2023-11-16T05:51:05.009Z,7.60
2023-11-16T05:53:33.080Z,7.60
2023-11-16T05:56:01.060Z,7.70
2023-11-16T05:58:29.120Z,7.50
2023-11-16T06:00:57.198Z,7.60
2023-11-16T06:03:28.751Z,7.50
2023-11-16T06:05:59.620Z,7.40
2023-11-16T06:08:27.989Z,7.30
2023-11-16T06:10:55.997Z,7.30
2023-11-16T06:13:24.257Z,7.40
2023-11-16T06:15:53.733Z,7.40
2023-11-16T06:18:21.953Z,7.30
2023-11-16T06:20:50.062Z,7.30
2023-11-16T06:23:19.392Z,7.30
2023-11-16T06:25:47.417Z,7.10
2023-11-16T06:28:15.494Z,7.20
2023-11-16T06:30:43.648Z,7.20
2023-11-16T06:33:11.789Z,7.20
2023-11-16T06:35:39.956Z,7.20
2023-11-16T06:38:10.445Z,7.30
2023-11-16T06:40:39.809Z,7.30
2023-11-16T06:43:08.325Z,7.20
2023-11-16T06:45:40.743Z,7.20
2023-11-16T06:48:08.960Z,7.30
2023-11-16T06:50:37.291Z,7.30
2023-11-16T06:53:06.775Z,7.40
2023-11-16T06:55:35.642Z,7.40
2023-11-16T06:58:06.032Z,7.40
2023-11-16T07:00:34.100Z,7.40
2023-11-16T07:03:02.214Z,7.40
2023-11-16T07:05:32.616Z,7.40
2023-11-16T07:08:02.502Z,7.40
2023-11-16T07:10:30.953Z,7.40
2023-11-16T07:12:59.963Z,7.40
2023-11-16T07:15:29.902Z,7.50
2023-11-16T07:17:58.504Z,7.40
2023-11-16T07:20:26.849Z,7.40
2023-11-16T07:22:54.905Z,7.50
2023-11-16T07:25:26.569Z,7.50
2023-11-16T07:27:54.634Z,7.60
2023-11-16T07:30:23.166Z,7.60
2023-11-16T07:32:52.704Z,7.50
2023-11-16T07:35:21.145Z,7.60
2023-11-16T07:37:49.493Z,7.60
2023-11-16T07:40:19.194Z,7.60
2023-11-16T07:42:49.163Z,7.60
2023-11-16T07:45:17.750Z,7.40
2023-11-16T07:47:48.652Z,7.50
2023-11-16T07:50:19.395Z,7.60
2023-11-16T07:52:48.885Z,7.60
2023-11-16T07:55:21.154Z,7.80
2023-11-16T07:57:50.460Z,7.80
2023-11-16T08:00:24.109Z,8.00
2023-11-16T08:03:09.901Z,8.00
2023-11-16T08:05:40.885Z,8.20
2023-11-16T08:08:12.970Z,8.20
2023-11-16T08:10:41.265Z,8.10
2023-11-16T08:13:10.833Z,8.10
2023-11-16T08:15:42.091Z,8.10
2023-11-16T08:18:11.088Z,8.10
2023-11-16T08:20:40.628Z,8.20
2023-11-16T08:23:10.077Z,8.20
2023-11-16T08:25:39.563Z,8.20
2023-11-16T08:28:10.050Z,8.20
2023-11-16T08:30:38.921Z,8.20
2023-11-16T08:33:08.713Z,8.20
2023-11-16T08:35:38.446Z,8.20
2023-11-16T08:38:09.486Z,8.30
2023-11-16T08:40:37.853Z,8.40
2023-11-16T08:43:11.969Z,8.70
2023-11-16T08:45:41.001Z,8.80
2023-11-16T08:48:11.036Z,8.60
2023-11-16T08:50:43.936Z,8.60
2023-11-16T08:53:14.664Z,8.50
2023-11-16T08:55:42.941Z,8.50
2023-11-16T08:58:12.439Z,8.50
2023-11-16T09:00:46.586Z,8.50
2023-11-16T09:03:15.148Z,8.50
2023-11-16T09:05:43.564Z,8.60
2023-11-16T09:08:14.621Z,8.60
2023-11-16T09:10:43.564Z,8.70
2023-11-16T09:13:13.984Z,8.80
2023-11-16T09:15:42.506Z,8.80
2023-11-16T09:18:11.292Z,8.80
2023-11-16T09:20:41.332Z,8.80
2023-11-16T09:23:12.917Z,8.90
2023-11-16T09:25:44.243Z,9.10
2023-11-16T09:28:12.863Z,9.00
2023-11-16T09:30:41.299Z,9.00
2023-11-16T09:33:11.250Z,8.90
2023-11-16T09:35:41.985Z,8.90
2023-11-16T09:38:13.157Z,9.00
2023-11-16T09:40:43.284Z,9.00
2023-11-16T09:43:22.043Z,8.90
2023-11-16T09:45:51.846Z,9.10
2023-11-16T09:48:23.683Z,8.90
2023-11-16T09:50:55.085Z,8.90
2023-11-16T09:53:24.465Z,8.90
2023-11-16T09:55:59.321Z,8.90
2023-11-16T09:58:29.041Z,8.90
2023-11-16T10:00:58.581Z,8.90
2023-11-16T10:03:28.785Z,9.00
2023-11-16T10:05:57.568Z,9.00
2023-11-16T10:08:28.379Z,9.00
2023-11-16T10:11:01.626Z,9.00
2023-11-16T10:13:30.951Z,9.00
2023-11-16T10:16:04.809Z,9.00
2023-11-16T10:18:33.034Z,9.00
2023-11-16T10:21:05.057Z,9.00
2023-11-16T10:23:33.803Z,9.00
2023-11-16T10:26:06.786Z,9.00
2023-11-16T10:28:37.184Z,9.00
2023-11-16T10:31:07.302Z,9.00
2023-11-16T10:33:36.645Z,9.00
2023-11-16T10:36:05.668Z,9.10
2023-11-16T10:38:34.520Z,9.10
2023-11-16T10:41:04.332Z,9.30
2023-11-16T10:43:32.422Z,9.30
2023-11-16T10:46:02.693Z,9.30
2023-11-16T10:48:31.388Z,9.40
2023-11-16T10:51:00.950Z,9.30
2023-11-16T10:53:34.166Z,9.40
2023-11-16T10:56:08.840Z,9.30
2023-11-16T10:58:41.640Z,9.30
2023-11-16T11:01:15.564Z,9.30
2023-11-16T11:03:46.547Z,9.30
2023-11-16T11:06:19.911Z,9.40
2023-11-16T11:08:49.861Z,9.50
2023-11-16T11:11:25.896Z,9.60
2023-11-16T11:13:56.405Z,9.70
2023-11-16T11:16:27.745Z,9.60
2023-11-16T11:18:56.176Z,9.70
2023-11-16T11:21:25.458Z,9.80
2023-11-16T11:24:01.690Z,10.00
2023-11-16T11:26:41.693Z,10.10
2023-11-16T11:29:10.896Z,10.10
2023-11-16T11:31:47.798Z,10.10
2023-11-16T11:34:17.102Z,10.10
2023-11-16T11:36:45.816Z,10.00
2023-11-16T11:39:16.300Z,10.10
2023-11-16T11:41:57.421Z,10.10
2023-11-16T11:44:27.211Z,10.00
2023-11-16T11:46:57.949Z,10.00
2023-11-16T11:49:26.485Z,10.00
2023-11-16T11:51:56.059Z,10.00
2023-11-16T11:54:38.373Z,10.00
2023-11-16T11:57:08.439Z,9.90
2023-11-16T11:59:37.676Z,9.90
2023-11-16T12:02:09.788Z,10.00
2023-11-16T12:04:39.100Z,10.10
2023-11-16T12:07:09.083Z,10.20
2023-11-16T12:09:37.994Z,10.30
2023-11-16T12:12:08.376Z,10.40
2023-11-16T12:14:44.830Z,10.20
2023-11-16T12:17:16.101Z,10.20
2023-11-16T12:19:45.122Z,10.10
2023-11-16T12:22:13.849Z,10.10
2023-11-16T12:24:41.993Z,10.20
2023-11-16T12:27:16.707Z,10.10
2023-11-16T12:29:55.255Z,10.00
2023-11-16T12:32:23.603Z,10.00
2023-11-16T12:34:52.427Z,9.90
2023-11-16T12:37:20.857Z,9.90
2023-11-16T12:39:50.054Z,9.80
2023-11-16T12:42:21.538Z,9.70
2023-11-16T12:44:51.677Z,9.80
2023-11-16T12:47:22.314Z,9.70
2023-11-16T12:49:53.380Z,9.80
2023-11-16T12:52:22.511Z,9.70
2023-11-16T12:54:50.854Z,9.80
2023-11-16T12:57:20.227Z,9.80
2023-11-16T12:59:48.231Z,9.70
2023-11-16T13:02:16.209Z,9.80
2023-11-16T13:04:44.371Z,9.70
2023-11-16T13:07:13.021Z,9.70
2023-11-16T13:09:41.121Z,9.70
2023-11-16T13:12:19.759Z,9.70
2023-11-16T13:14:54.465Z,9.60
2023-11-16T13:17:22.691Z,9.50
2023-11-16T13:19:50.782Z,9.40
2023-11-16T13:22:18.806Z,9.40
2023-11-16T13:24:47.286Z,9.60
2023-11-16T13:27:15.373Z,9.50
2023-11-16T13:29:45.082Z,9.40
2023-11-16T13:32:16.179Z,9.50
2023-11-16T13:34:44.916Z,9.70
2023-11-16T13:37:13.079Z,9.70
2023-11-16T13:39:42.764Z,9.50
2023-11-16T13:42:11.547Z,9.50
2023-11-16T13:44:39.594Z,9.60
2023-11-16T13:47:09.130Z,9.70
2023-11-16T13:49:39.683Z,9.80
2023-11-16T13:52:08.348Z,9.50
2023-11-16T13:54:36.397Z,9.40
2023-11-16T13:57:04.698Z,9.40
2023-11-16T13:59:32.869Z,9.40
2023-11-16T14:02:01.000Z,9.40
2023-11-16T14:04:30.790Z,9.50
2023-11-16T14:07:00.669Z,9.40
2023-11-16T14:09:28.793Z,9.20
2023-11-16T14:11:56.819Z,9.20
2023-11-16T14:14:24.859Z,9.20
2023-11-16T14:16:52.974Z,9.10
2023-11-16T14:19:24.239Z,9.00
2023-11-16T14:21:52.699Z,8.90
2023-11-16T14:24:28.644Z,8.80
2023-11-16T14:27:01.185Z,8.80
2023-11-16T14:29:30.022Z,8.80
2023-11-16T14:31:58.118Z,8.80
2023-11-16T14:34:26.182Z,8.80
2023-11-16T14:36:54.498Z,8.70
2023-11-16T14:39:24.164Z,8.70
2023-11-16T14:41:52.334Z,8.70
2023-11-16T14:44:20.314Z,8.60
2023-11-16T14:46:48.788Z,8.60
2023-11-16T14:49:18.261Z,8.50
2023-11-16T14:51:46.779Z,8.50
2023-11-16T14:54:15.267Z,8.50
2023-11-16T14:56:44.751Z,8.60
2023-11-16T14:59:12.810Z,8.50
2023-11-16T15:01:40.939Z,8.50
2023-11-16T15:04:09.120Z,8.60
2023-11-16T15:06:37.759Z,8.60
2023-11-16T15:09:07.160Z,8.60
2023-11-16T15:11:35.261Z,8.50
2023-11-16T15:14:05.018Z,8.50
2023-11-16T15:16:43.272Z,8.40
2023-11-16T15:19:11.676Z,8.40
2023-11-16T15:21:40.995Z,8.40
2023-11-16T15:24:10.058Z,8.30
2023-11-16T15:26:48.068Z,8.30
2023-11-16T15:29:20.258Z,8.30
2023-11-16T15:31:48.533Z,8.30
2023-11-16T15:34:16.812Z,8.50
2023-11-16T15:36:45.184Z,8.30
2023-11-16T15:39:16.637Z,8.30
2023-11-16T15:41:45.225Z,8.30
2023-11-16T15:44:13.293Z,8.20
2023-11-16T15:46:42.787Z,8.20
2023-11-16T15:49:12.719Z,8.20
2023-11-16T15:51:41.189Z,8.20
2023-11-16T15:54:09.579Z,8.20
2023-11-16T15:56:38.112Z,8.20
2023-11-16T15:59:06.447Z,8.20
2023-11-16T16:01:34.804Z,8.20
2023-11-16T16:04:05.257Z,8.20
2023-11-16T16:06:33.511Z,8.20
2023-11-16T16:09:01.659Z,8.30
2023-11-16T16:11:29.714Z,8.20
2023-11-16T16:13:57.932Z,8.20
2023-11-16T16:16:26.097Z,8.20
2023-11-16T16:18:54.166Z,8.00
2023-11-16T16:21:23.592Z,8.30
2023-11-16T16:23:51.598Z,8.30
2023-11-16T16:26:19.552Z,8.20
2023-11-16T16:28:47.534Z,8.10
2023-11-16T16:31:20.090Z,8.10
2023-11-16T16:33:48.494Z,8.20
2023-11-16T16:36:16.654Z,8.10
2023-11-16T16:38:46.132Z,8.10
2023-11-16T16:41:14.133Z,8.20
2023-11-16T16:43:42.185Z,8.10
2023-11-16T16:46:19.077Z,8.10
2023-11-16T16:48:47.557Z,8.10
2023-11-16T16:51:15.848Z,8.10
2023-11-16T16:53:45.419Z,8.20
2023-11-16T16:56:13.727Z,8.30
2023-11-16T16:58:42.056Z,8.10
2023-11-16T17:01:10.297Z,8.20
2023-11-16T17:03:41.161Z,8.10
2023-11-16T17:06:10.409Z,8.10
2023-11-16T17:08:40.323Z,8.10
2023-11-16T17:11:10.259Z,8.10
2023-11-16T17:13:37.351Z,8.10
2023-11-16T17:16:06.755Z,8.00
2023-11-16T17:18:34.908Z,8.10
2023-11-16T17:21:06.460Z,8.10
2023-11-16T17:23:34.628Z,8.00
2023-11-16T17:26:06.428Z,8.00
2023-11-16T17:28:36.061Z,7.90
2023-11-16T17:31:04.297Z,8.00
2023-11-16T17:33:32.446Z,8.10
2023-11-16T17:36:03.928Z,8.30
2023-11-16T17:38:32.022Z,8.20
2023-11-16T17:41:03.560Z,8.10
2023-11-16T17:43:33.022Z,8.00
2023-11-16T17:46:03.309Z,8.00
2023-11-16T17:48:32.807Z,8.00
2023-11-16T17:51:01.724Z,8.00
2023-11-16T17:53:30.121Z,7.90
2023-11-16T17:55:58.355Z,7.90
2023-11-16T17:58:27.450Z,7.90
2023-11-16T18:00:55.545Z,7.90
2023-11-16T18:03:25.044Z,8.00
2023-11-16T18:05:54.379Z,8.00
2023-11-16T18:08:22.561Z,7.90
2023-11-16T18:10:55.240Z,7.90
2023-11-16T18:13:23.719Z,7.90
2023-11-16T18:15:52.633Z,7.90
2023-11-16T18:18:21.597Z,7.90
2023-11-16T18:20:53.170Z,7.80
2023-11-16T18:23:21.215Z,7.80
2023-11-16T18:25:49.449Z,7.70
2023-11-16T18:28:17.510Z,7.70
2023-11-16T18:30:47.851Z,7.70
2023-11-16T18:33:18.334Z,7.60
2023-11-16T18:35:53.092Z,7.70
2023-11-16T18:38:24.221Z,7.70
2023-11-16T18:40:52.312Z,7.70
2023-11-16T18:43:22.627Z,7.70
2023-11-16T18:45:50.975Z,7.80
2023-11-16T18:48:19.250Z,7.70
2023-11-16T18:50:47.683Z,7.70
2023-11-16T18:53:16.083Z,7.60
2023-11-16T18:55:45.560Z,7.70
2023-11-16T18:58:13.742Z,7.60
2023-11-16T19:00:41.897Z,7.60
2023-11-16T19:03:14.234Z,7.50
2023-11-16T19:05:43.071Z,7.50
2023-11-16T19:08:12.667Z,7.50
2023-11-16T19:10:42.500Z,7.60
2023-11-16T19:13:13.294Z,7.60
2023-11-16T19:15:42.239Z,7.60
2023-11-16T19:18:12.225Z,7.60
2023-11-16T19:20:40.879Z,7.60
2023-11-16T19:23:10.233Z,7.60
2023-11-16T19:25:38.814Z,7.60
2023-11-16T19:28:07.993Z,7.50
2023-11-16T19:30:37.581Z,7.50
2023-11-16T19:33:05.879Z,7.50
2023-11-16T19:35:34.528Z,7.50
2023-11-16T19:38:02.618Z,7.50
2023-11-16T19:40:37.440Z,7.50
2023-11-16T19:43:09.023Z,7.50
2023-11-16T19:45:39.421Z,7.50
2023-11-16T19:48:08.440Z,7.50
2023-11-16T19:50:39.261Z,7.50
2023-11-16T19:53:08.288Z,7.40
2023-11-16T19:55:38.887Z,7.50
2023-11-16T19:58:07.949Z,7.50
2023-11-16T20:00:39.233Z,7.40
2023-11-16T20:03:09.384Z,7.50
2023-11-16T20:05:37.648Z,7.30
2023-11-16T20:08:06.141Z,7.40
2023-11-16T20:10:39.274Z,7.30
2023-11-16T20:13:09.215Z,7.40
2023-11-16T20:15:37.965Z,7.30
2023-11-16T20:18:07.095Z,7.40
2023-11-16T20:20:44.629Z,7.40
2023-11-16T20:23:20.015Z,7.50
2023-11-16T20:25:49.446Z,7.50
2023-11-16T20:28:17.608Z,7.60
2023-11-16T20:30:47.036Z,7.50
2023-11-16T20:33:15.167Z,7.50
2023-11-16T20:35:44.668Z,7.50
2023-11-16T20:38:12.750Z,7.50
2023-11-16T20:40:40.742Z,7.60
2023-11-16T20:43:08.995Z,7.60
2023-11-16T20:45:37.259Z,7.60
2023-11-16T20:48:05.754Z,7.60
2023-11-16T20:50:33.796Z,7.60
2023-11-16T20:53:04.308Z,7.60
2023-11-16T20:55:32.752Z,7.60
2023-11-16T20:58:01.305Z,7.60
2023-11-16T21:00:29.488Z,7.60
2023-11-16T21:02:57.648Z,7.60
2023-11-16T21:05:25.920Z,7.60
2023-11-16T21:08:05.301Z,7.70
2023-11-16T21:10:41.676Z,7.70
2023-11-16T21:13:13.456Z,7.60
2023-11-16T21:15:41.889Z,7.70
2023-11-16T21:18:10.124Z,7.60
2023-11-16T21:20:38.161Z,7.70
2023-11-16T21:23:09.339Z,7.60
2023-11-16T21:25:39.438Z,7.60
2023-11-16T21:35:37.926Z,7.60
2023-11-16T21:38:06.056Z,7.60
2023-11-16T21:40:34.573Z,7.70
2023-11-16T21:43:07.274Z,7.70
2023-11-16T21:50:40.472Z,7.80
2023-11-16T21:53:12.954Z,7.80
2023-11-16T21:55:43.938Z,7.90
2023-11-16T22:00:43.739Z,7.80
2023-11-16T22:05:41.122Z,7.90
2023-11-16T22:08:09.313Z,7.80
2023-11-16T22:13:13.793Z,7.90
2023-11-16T22:15:41.951Z,7.80
2023-11-16T22:18:12.707Z,8.00
2023-11-16T22:20:44.690Z,7.90
2023-11-16T22:25:42.935Z,7.90
2023-11-16T22:28:15.565Z,7.80
2023-11-16T22:33:24.549Z,7.70
2023-11-16T22:35:54.634Z,7.60
2023-11-16T22:38:22.809Z,7.30
2023-11-16T22:43:21.656Z,7.60
2023-11-16T22:45:49.792Z,7.60
2023-11-16T22:48:18.737Z,7.60
2023-11-16T22:50:47.027Z,7.60
2023-11-16T22:53:15.718Z,7.40
2023-11-16T22:55:43.903Z,7.40
2023-11-16T22:58:11.962Z,7.40
2023-11-16T23:00:47.192Z,7.40
2023-11-16T23:03:17.900Z,7.40
2023-11-16T23:05:46.307Z,7.40
2023-11-16T23:08:15.445Z,7.30
2023-11-16T23:10:43.836Z,7.30
2023-11-16T23:13:13.420Z,7.30
2023-11-16T23:15:43.948Z,7.30
2023-11-16T23:18:12.459Z,7.40
2023-11-16T23:20:43.134Z,7.40
2023-11-16T23:23:11.398Z,7.40
2023-11-16T23:25:42.112Z,7.40
2023-11-16T23:28:11.036Z,7.30
2023-11-16T23:30:40.913Z,7.30
2023-11-16T23:33:10.577Z,7.40
2023-11-16T23:35:38.852Z,7.30
2023-11-16T23:38:07.673Z,7.30
2023-11-16T23:40:35.737Z,7.30
2023-11-16T23:43:06.181Z,7.20
2023-11-16T23:45:34.696Z,7.20
2023-11-16T23:48:05.164Z,7.10
2023-11-16T23:50:36.486Z,7.20
2023-11-16T23:53:05.123Z,7.10
2023-11-16T23:55:33.776Z,7.00
2023-11-16T23:58:01.975Z,7.30
